sensor_id;sensor_type;location;lat;lon;timestamp;temperature;humidity
35343;DHT22;21449;48.146;11.594;2023-04-22T01:27:28;8.60;99.90
35343;DHT22;21449;48.146;11.594;2023-04-22T01:31:30;8.50;99.90
35343;DHT22;21449;48.146;11.594;2023-04-22T01:35:32;8.50;99.90
35343;DHT22;21449;48.146;11.594;2023-04-22T01:39:35;8.50;99.90
35343;DHT22;21449;48.146;11.594;2023-04-22T01:43:40;8.60;99.90
35343;DHT22;21449;48.146;11.594;2023-04-22T01:47:43;8.50;99.90
35343;DHT22;21449;48.146;11.594;2023-04-22T01:51:45;8.40;99.90
35343;DHT22;21449;48.146;11.594;2023-04-22T01:55:47;8.20;99.90
35343;DHT22;21449;48.146;11.594;2023-04-22T01:59:52;8.00;99.90
35343;DHT22;21449;48.146;11.594;2023-04-22T02:03:54;8.00;99.90
35343;DHT22;21449;48.146;11.594;2023-04-22T02:07:56;8.10;99.90
35343;DHT22;21449;48.146;11.594;2023-04-22T02:11:58;8.10;99.90
35343;DHT22;21449;48.146;11.594;2023-04-22T02:16:04;8.00;99.90
35343;DHT22;21449;48.146;11.594;2023-04-22T02:20:07;8.00;99.90
35343;DHT22;21449;48.146;11.594;2023-04-22T02:24:10;8.10;99.90
35343;DHT22;21449;48.146;11.594;2023-04-22T02:28:12;8.10;99.90
35343;DHT22;21449;48.146;11.594;2023-04-22T02:32:16;8.20;99.90
35343;DHT22;21449;48.146;11.594;2023-04-22T02:36:18;8.10;99.90
35343;DHT22;21449;48.146;11.594;2023-04-22T02:40:21;8.10;99.90
35343;DHT22;21449;48.146;11.594;2023-04-22T02:44:23;8.00;99.90
35343;DHT22;21449;48.146;11.594;2023-04-22T02:48:28;8.00;99.90
35343;DHT22;21449;48.146;11.594;2023-04-22T02:52:30;7.90;99.90
35343;DHT22;21449;48.146;11.594;2023-04-22T02:56:32;7.80;99.90
35343;DHT22;21449;48.146;11.594;2023-04-22T03:00:34;7.90;99.90
35343;DHT22;21449;48.146;11.594;2023-04-22T03:04:39;7.90;99.90
35343;DHT22;21449;48.146;11.594;2023-04-22T03:08:41;7.90;99.90
35343;DHT22;21449;48.146;11.594;2023-04-22T03:12:43;7.90;99.90
35343;DHT22;21449;48.146;11.594;2023-04-22T03:16:45;7.80;99.90
35343;DHT22;21449;48.146;11.594;2023-04-22T03:20:50;7.80;99.90
35343;DHT22;21449;48.146;11.594;2023-04-22T03:24:52;7.70;99.90
35343;DHT22;21449;48.146;11.594;2023-04-22T03:28:54;7.70;99.90
35343;DHT22;21449;48.146;11.594;2023-04-22T03:32:56;7.60;99.90
35343;DHT22;21449;48.146;11.594;2023-04-22T03:37:01;7.40;99.90
35343;DHT22;21449;48.146;11.594;2023-04-22T03:41:03;7.20;99.90
35343;DHT22;21449;48.146;11.594;2023-04-22T03:45:06;7.10;99.90
35343;DHT22;21449;48.146;11.594;2023-04-22T03:49:08;7.00;99.90
35343;DHT22;21449;48.146;11.594;2023-04-22T03:53:13;6.90;99.90
35343;DHT22;21449;48.146;11.594;2023-04-22T03:57:15;6.90;99.90
35343;DHT22;21449;48.146;11.594;2023-04-22T04:01:17;6.90;99.90
35343;DHT22;21449;48.146;11.594;2023-04-22T04:05:19;6.80;99.90
35343;DHT22;21449;48.146;11.594;2023-04-22T04:09:24;6.90;99.90
35343;DHT22;21449;48.146;11.594;2023-04-22T04:13:26;7.10;99.90
35343;DHT22;21449;48.146;11.594;2023-04-22T04:17:28;7.20;99.90
35343;DHT22;21449;48.146;11.594;2023-04-22T04:21:31;7.20;99.90
35343;DHT22;21449;48.146;11.594;2023-04-22T04:25:35;7.30;99.90
35343;DHT22;21449;48.146;11.594;2023-04-22T04:29:37;7.40;99.90
35343;DHT22;21449;48.146;11.594;2023-04-22T04:33:40;7.40;99.90
35343;DHT22;21449;48.146;11.594;2023-04-22T04:37:42;7.40;99.90
35343;DHT22;21449;48.146;11.594;2023-04-22T04:41:47;7.50;99.90
35343;DHT22;21449;48.146;11.594;2023-04-22T04:45:49;7.60;99.90
35343;DHT22;21449;48.146;11.594;2023-04-22T04:49:51;7.70;99.90
35343;DHT22;21449;48.146;11.594;2023-04-22T04:53:53;7.80;99.90
35343;DHT22;21449;48.146;11.594;2023-04-22T04:57:58;7.80;99.90
35343;DHT22;21449;48.146;11.594;2023-04-22T05:02:00;7.80;99.90
35343;DHT22;21449;48.146;11.594;2023-04-22T05:06:03;7.90;99.90
35343;DHT22;21449;48.146;11.594;2023-04-22T05:10:06;8.10;99.90
35343;DHT22;21449;48.146;11.594;2023-04-22T05:14:11;8.20;99.90
35343;DHT22;21449;48.146;11.594;2023-04-22T05:18:13;8.30;99.90
35343;DHT22;21449;48.146;11.594;2023-04-22T05:22:16;8.90;99.90
35343;DHT22;21449;48.146;11.594;2023-04-22T05:26:18;10.60;99.90
35343;DHT22;21449;48.146;11.594;2023-04-22T05:30:23;12.30;99.90
35343;DHT22;21449;48.146;11.594;2023-04-22T05:34:25;13.80;99.90
35343;DHT22;21449;48.146;11.594;2023-04-22T05:38:27;14.80;98.80
35343;DHT22;21449;48.146;11.594;2023-04-22T05:42:29;15.70;96.70
35343;DHT22;21449;48.146;11.594;2023-04-22T05:46:34;16.70;94.70
35343;DHT22;21449;48.146;11.594;2023-04-22T05:50:36;17.60;91.90
35343;DHT22;21449;48.146;11.594;2023-04-22T05:54:38;17.90;87.30
35343;DHT22;21449;48.146;11.594;2023-04-22T05:58:40;16.60;91.10
35343;DHT22;21449;48.146;11.594;2023-04-22T06:02:45;15.30;94.10
35343;DHT22;21449;48.146;11.594;2023-04-22T06:06:47;14.40;96.20
35343;DHT22;21449;48.146;11.594;2023-04-22T06:10:49;13.50;98.40
35343;DHT22;21449;48.146;11.594;2023-04-22T06:14:51;13.00;97.40
35343;DHT22;21449;48.146;11.594;2023-04-22T06:18:56;12.60;94.60
35343;DHT22;21449;48.146;11.594;2023-04-22T06:22:58;12.50;95.80
35343;DHT22;21449;48.146;11.594;2023-04-22T06:27:00;12.60;95.50
35343;DHT22;21449;48.146;11.594;2023-04-22T06:31:02;12.70;94.10
35343;DHT22;21449;48.146;11.594;2023-04-22T06:35:08;12.90;93.70
35343;DHT22;21449;48.146;11.594;2023-04-22T06:39:10;13.10;93.80
35343;DHT22;21449;48.146;11.594;2023-04-22T06:43:12;13.30;93.20
35343;DHT22;21449;48.146;11.594;2023-04-22T06:47:14;13.70;93.50
35343;DHT22;21449;48.146;11.594;2023-04-22T06:51:19;13.80;90.70
35343;DHT22;21449;48.146;11.594;2023-04-22T06:55:21;14.00;90.50
35343;DHT22;21449;48.146;11.594;2023-04-22T06:59:23;14.20;90.00
35343;DHT22;21449;48.146;11.594;2023-04-22T07:03:25;14.50;90.60
35343;DHT22;21449;48.146;11.594;2023-04-22T07:07:30;14.60;88.40
35343;DHT22;21449;48.146;11.594;2023-04-22T07:11:33;14.80;88.30
35343;DHT22;21449;48.146;11.594;2023-04-22T07:15:35;15.00;88.50
35343;DHT22;21449;48.146;11.594;2023-04-22T07:19:37;15.20;84.30
35343;DHT22;21449;48.146;11.594;2023-04-22T07:23:42;15.30;82.80
35343;DHT22;21449;48.146;11.594;2023-04-22T07:27:44;15.40;80.40
35343;DHT22;21449;48.146;11.594;2023-04-22T07:31:47;15.50;81.70
35343;DHT22;21449;48.146;11.594;2023-04-22T07:35:49;15.70;78.90
35343;DHT22;21449;48.146;11.594;2023-04-22T07:39:53;16.10;79.90
35343;DHT22;21449;48.146;11.594;2023-04-22T07:43:56;16.40;76.70
35343;DHT22;21449;48.146;11.594;2023-04-22T07:47:58;16.80;75.80
35343;DHT22;21449;48.146;11.594;2023-04-22T07:52:00;16.90;72.30
35343;DHT22;21449;48.146;11.594;2023-04-22T07:56:05;16.80;69.20
35343;DHT22;21449;48.146;11.594;2023-04-22T08:00:09;17.00;69.60
35343;DHT22;21449;48.146;11.594;2023-04-22T08:04:11;17.10;69.70
35343;DHT22;21449;48.146;11.594;2023-04-22T08:08:14;17.30;70.90
35343;DHT22;21449;48.146;11.594;2023-04-22T08:12:18;17.50;68.50
35343;DHT22;21449;48.146;11.594;2023-04-22T08:16:21;17.60;66.80
35343;DHT22;21449;48.146;11.594;2023-04-22T08:20:23;17.90;66.00
35343;DHT22;21449;48.146;11.594;2023-04-22T08:24:25;17.80;61.70
35343;DHT22;21449;48.146;11.594;2023-04-22T08:28:30;17.80;62.70
35343;DHT22;21449;48.146;11.594;2023-04-22T08:32:32;18.20;62.30
35343;DHT22;21449;48.146;11.594;2023-04-22T08:36:34;18.40;62.20
35343;DHT22;21449;48.146;11.594;2023-04-22T08:40:39;18.70;62.50
35343;DHT22;21449;48.146;11.594;2023-04-22T08:44:44;18.90;61.20
35343;DHT22;21449;48.146;11.594;2023-04-22T08:48:48;18.90;57.30
35343;DHT22;21449;48.146;11.594;2023-04-22T08:52:50;19.30;56.20
35343;DHT22;21449;48.146;11.594;2023-04-22T08:56:53;19.50;56.00
35343;DHT22;21449;48.146;11.594;2023-04-22T09:00:59;19.70;54.50
35343;DHT22;21449;48.146;11.594;2023-04-22T09:05:02;19.70;52.80
35343;DHT22;21449;48.146;11.594;2023-04-22T09:09:06;19.50;53.70
35343;DHT22;21449;48.146;11.594;2023-04-22T09:13:08;19.60;53.90
35343;DHT22;21449;48.146;11.594;2023-04-22T09:17:14;19.70;52.90
35343;DHT22;21449;48.146;11.594;2023-04-22T09:21:17;20.00;51.40
35343;DHT22;21449;48.146;11.594;2023-04-22T09:25:20;20.20;50.10
35343;DHT22;21449;48.146;11.594;2023-04-22T09:29:28;20.20;49.20
35343;DHT22;21449;48.146;11.594;2023-04-22T09:33:37;20.50;48.10
35343;DHT22;21449;48.146;11.594;2023-04-22T09:37:40;20.50;47.20
35343;DHT22;21449;48.146;11.594;2023-04-22T09:41:53;20.50;46.20
35343;DHT22;21449;48.146;11.594;2023-04-22T09:45:58;20.50;46.60
35343;DHT22;21449;48.146;11.594;2023-04-22T09:50:06;20.90;48.90
35343;DHT22;21449;48.146;11.594;2023-04-22T09:54:09;21.00;47.30
35343;DHT22;21449;48.146;11.594;2023-04-22T09:58:13;20.80;46.80
35343;DHT22;21449;48.146;11.594;2023-04-22T10:02:15;20.80;47.50
35343;DHT22;21449;48.146;11.594;2023-04-22T10:06:20;20.90;49.40
35343;DHT22;21449;48.146;11.594;2023-04-22T10:10:23;21.00;49.00
35343;DHT22;21449;48.146;11.594;2023-04-22T10:14:25;21.10;48.50
35343;DHT22;21449;48.146;11.594;2023-04-22T10:18:28;20.90;46.50
35343;DHT22;21449;48.146;11.594;2023-04-22T10:22:34;21.30;46.80
35343;DHT22;21449;48.146;11.594;2023-04-22T10:26:41;21.30;47.10
35343;DHT22;21449;48.146;11.594;2023-04-22T10:30:44;21.70;45.50
35343;DHT22;21449;48.146;11.594;2023-04-22T10:34:47;21.80;45.10
35343;DHT22;21449;48.146;11.594;2023-04-22T10:39:17;22.00;45.10
35343;DHT22;21449;48.146;11.594;2023-04-22T10:43:19;22.00;43.30
35343;DHT22;21449;48.146;11.594;2023-04-22T10:47:26;21.80;42.10
35343;DHT22;21449;48.146;11.594;2023-04-22T10:51:38;22.00;42.20
35343;DHT22;21449;48.146;11.594;2023-04-22T10:55:52;21.70;40.90
35343;DHT22;21449;48.146;11.594;2023-04-22T10:59:57;22.00;41.00
35343;DHT22;21449;48.146;11.594;2023-04-22T11:04:20;22.00;39.70
35343;DHT22;21449;48.146;11.594;2023-04-22T11:08:27;22.20;38.90
35343;DHT22;21449;48.146;11.594;2023-04-22T11:12:44;22.40;39.60
35343;DHT22;21449;48.146;11.594;2023-04-22T11:16:46;22.50;37.20
35343;DHT22;21449;48.146;11.594;2023-04-22T11:20:50;22.30;36.90
35343;DHT22;21449;48.146;11.594;2023-04-22T11:24:53;22.60;37.00
35343;DHT22;21449;48.146;11.594;2023-04-22T11:28:58;22.80;36.50
35343;DHT22;21449;48.146;11.594;2023-04-22T11:33:00;22.80;36.10
35343;DHT22;21449;48.146;11.594;2023-04-22T11:37:03;22.50;34.90
35343;DHT22;21449;48.146;11.594;2023-04-22T11:41:05;22.60;34.80
35343;DHT22;21449;48.146;11.594;2023-04-22T11:45:10;22.80;35.90
35343;DHT22;21449;48.146;11.594;2023-04-22T11:49:13;23.00;37.40
35343;DHT22;21449;48.146;11.594;2023-04-22T11:53:17;23.30;36.80
35343;DHT22;21449;48.146;11.594;2023-04-22T11:57:19;23.30;33.40
35343;DHT22;21449;48.146;11.594;2023-04-22T12:01:24;23.20;33.30
35343;DHT22;21449;48.146;11.594;2023-04-22T12:05:36;23.20;35.20
35343;DHT22;21449;48.146;11.594;2023-04-22T12:09:39;23.20;35.90
35343;DHT22;21449;48.146;11.594;2023-04-22T12:13:43;23.20;35.60
35343;DHT22;21449;48.146;11.594;2023-04-22T12:17:49;23.40;33.10
35343;DHT22;21449;48.146;11.594;2023-04-22T12:21:54;23.70;34.00
35343;DHT22;21449;48.146;11.594;2023-04-22T12:25:56;23.60;33.70
35343;DHT22;21449;48.146;11.594;2023-04-22T12:29:58;23.40;31.80
35343;DHT22;21449;48.146;11.594;2023-04-22T12:34:03;23.50;32.70
35343;DHT22;21449;48.146;11.594;2023-04-22T12:38:05;23.50;33.90
35343;DHT22;21449;48.146;11.594;2023-04-22T12:42:07;23.20;33.00
35343;DHT22;21449;48.146;11.594;2023-04-22T12:46:09;22.80;33.70
35343;DHT22;21449;48.146;11.594;2023-04-22T12:50:14;22.80;33.40
35343;DHT22;21449;48.146;11.594;2023-04-22T12:54:17;23.20;33.10
35343;DHT22;21449;48.146;11.594;2023-04-22T12:58:20;23.30;35.30
35343;DHT22;21449;48.146;11.594;2023-04-22T13:02:22;23.20;35.70
35343;DHT22;21449;48.146;11.594;2023-04-22T13:06:27;23.20;36.20
35343;DHT22;21449;48.146;11.594;2023-04-22T13:10:29;23.00;35.60
35343;DHT22;21449;48.146;11.594;2023-04-22T13:14:31;22.90;36.00
35343;DHT22;21449;48.146;11.594;2023-04-22T13:18:33;22.60;36.60
35343;DHT22;21449;48.146;11.594;2023-04-22T13:22:38;22.90;36.20
35343;DHT22;21449;48.146;11.594;2023-04-22T13:26:41;22.90;34.90
35343;DHT22;21449;48.146;11.594;2023-04-22T13:30:43;23.10;34.10
35343;DHT22;21449;48.146;11.594;2023-04-22T13:34:45;23.00;34.60
35343;DHT22;21449;48.146;11.594;2023-04-22T13:38:50;22.80;35.80
35343;DHT22;21449;48.146;11.594;2023-04-22T13:42:52;22.90;35.30
35343;DHT22;21449;48.146;11.594;2023-04-22T13:46:54;23.10;35.30
35343;DHT22;21449;48.146;11.594;2023-04-22T13:50:56;23.00;35.40
35343;DHT22;21449;48.146;11.594;2023-04-22T13:55:01;23.10;34.80
35343;DHT22;21449;48.146;11.594;2023-04-22T13:59:04;23.20;34.70
35343;DHT22;21449;48.146;11.594;2023-04-22T14:03:06;23.30;34.60
35343;DHT22;21449;48.146;11.594;2023-04-22T14:07:08;23.10;34.40
35343;DHT22;21449;48.146;11.594;2023-04-22T14:11:13;23.00;34.50
35343;DHT22;21449;48.146;11.594;2023-04-22T14:15:16;23.00;35.30
35343;DHT22;21449;48.146;11.594;2023-04-22T14:19:19;22.70;36.20
35343;DHT22;21449;48.146;11.594;2023-04-22T14:23:21;22.50;36.50
35343;DHT22;21449;48.146;11.594;2023-04-22T14:27:26;22.60;36.90
35343;DHT22;21449;48.146;11.594;2023-04-22T14:31:28;22.90;36.80
35343;DHT22;21449;48.146;11.594;2023-04-22T14:35:31;22.90;37.10
35343;DHT22;21449;48.146;11.594;2023-04-22T14:39:33;23.00;36.20
35343;DHT22;21449;48.146;11.594;2023-04-22T14:43:38;23.00;36.60
35343;DHT22;21449;48.146;11.594;2023-04-22T14:47:40;22.80;36.40
35343;DHT22;21449;48.146;11.594;2023-04-22T14:51:42;22.50;35.90
35343;DHT22;21449;48.146;11.594;2023-04-22T14:55:45;22.30;36.70
35343;DHT22;21449;48.146;11.594;2023-04-22T14:59:49;22.00;37.90
35343;DHT22;21449;48.146;11.594;2023-04-22T15:03:52;21.50;38.70
35343;DHT22;21449;48.146;11.594;2023-04-22T15:07:54;21.80;38.40
35343;DHT22;21449;48.146;11.594;2023-04-22T15:11:56;22.20;37.60
35343;DHT22;21449;48.146;11.594;2023-04-22T15:16:01;22.30;36.80
35343;DHT22;21449;48.146;11.594;2023-04-22T15:20:04;22.40;36.30
35343;DHT22;21449;48.146;11.594;2023-04-22T15:24:09;22.20;36.30
35343;DHT22;21449;48.146;11.594;2023-04-22T15:28:12;21.80;36.30
35343;DHT22;21449;48.146;11.594;2023-04-22T15:32:17;21.70;37.10
35343;DHT22;21449;48.146;11.594;2023-04-22T15:36:19;21.80;37.10
35343;DHT22;21449;48.146;11.594;2023-04-22T15:40:21;21.80;37.50
35343;DHT22;21449;48.146;11.594;2023-04-22T15:44:23;21.80;37.30
35343;DHT22;21449;48.146;11.594;2023-04-22T15:48:28;21.70;37.10
35343;DHT22;21449;48.146;11.594;2023-04-22T15:52:32;21.70;36.80
35343;DHT22;21449;48.146;11.594;2023-04-22T15:56:35;21.50;36.90
35343;DHT22;21449;48.146;11.594;2023-04-22T16:00:37;21.40;37.40
